createdAt,value
2016-04-02T00:00:17.954Z,1013.15
2016-04-02T00:01:17.958Z,1013.19
2016-04-02T00:02:17.960Z,1013.17
2016-04-02T00:03:17.979Z,1013.2
2016-04-02T00:04:17.982Z,1013.17
2016-04-02T00:05:17.984Z,1013.13
2016-04-02T00:06:17.987Z,1013.16
2016-04-02T00:07:17.990Z,1013.13
2016-04-02T00:08:18.007Z,1013.14
2016-04-02T00:09:18.010Z,1013.11
2016-04-02T00:10:18.012Z,1013.1
2016-04-02T00:11:18.016Z,1013.15
2016-04-02T00:12:18.018Z,1013.16
2016-04-02T00:13:18.037Z,1013.12
2016-04-02T00:14:18.040Z,1013.09
2016-04-02T00:15:18.042Z,1013.14
2016-04-02T00:16:18.045Z,1013.14
2016-04-02T00:17:18.064Z,1013.16
2016-04-02T00:18:18.066Z,1013.16
2016-04-02T00:19:18.069Z,1013.16
2016-04-02T00:20:18.071Z,1013.16
2016-04-02T00:21:18.075Z,1013.2
2016-04-02T00:22:18.092Z,1013.17
2016-04-02T00:23:18.095Z,1013.18
2016-04-02T00:24:18.098Z,1013.14
2016-04-02T00:25:18.116Z,1013.18
2016-04-02T00:26:18.119Z,1013.17
2016-04-02T00:27:18.122Z,1013.18
2016-04-02T00:28:18.125Z,1013.19
2016-04-02T00:29:18.127Z,1013.18
2016-04-02T00:30:18.129Z,1013.18
2016-04-02T00:31:18.147Z,1013.21
2016-04-02T00:32:18.150Z,1013.18
2016-04-02T00:33:18.152Z,1013.18
2016-04-02T00:34:18.155Z,1013.18
2016-04-02T00:35:18.163Z,1013.18
2016-04-02T00:36:18.166Z,1013.2
2016-04-02T00:37:18.184Z,1013.2
2016-04-02T00:38:18.187Z,1013.17
2016-04-02T00:39:18.190Z,1013.21
2016-04-02T00:40:18.208Z,1013.21
2016-04-02T00:41:18.212Z,1013.16
2016-04-02T00:42:18.214Z,1013.17
2016-04-02T00:43:18.216Z,1013.14
2016-04-02T00:44:18.220Z,1013.18
2016-04-02T00:45:18.237Z,1013.16
2016-04-02T00:46:18.240Z,1013.18
2016-04-02T00:47:18.258Z,1013.17
2016-04-02T00:48:18.245Z,1013.17
2016-04-02T00:49:18.248Z,1013.17
2016-04-02T00:50:18.266Z,1013.19
2016-04-02T00:51:18.269Z,1013.21
2016-04-02T00:52:18.272Z,1013.17
2016-04-02T00:53:18.274Z,1013.16
2016-04-02T00:54:18.277Z,1013.19
2016-04-02T00:55:18.295Z,1013.16
2016-04-02T00:56:18.297Z,1013.17
2016-04-02T00:57:18.300Z,1013.15
2016-04-02T00:58:18.302Z,1013.2
2016-04-02T00:59:18.322Z,1013.22
2016-04-02T01:00:18.324Z,1013.19
2016-04-02T01:01:18.327Z,1013.23
2016-04-02T01:02:18.330Z,1013.18
2016-04-02T01:03:18.348Z,1013.21
2016-04-02T01:04:18.351Z,1013.19
2016-04-02T01:05:18.369Z,1013.17
2016-04-02T01:06:18.357Z,1013.18
2016-04-02T01:07:18.390Z,1013.23
2016-04-02T01:08:18.392Z,1013.14
2016-04-02T01:09:18.380Z,1013.14
2016-04-02T01:10:18.383Z,1013.11
2016-04-02T01:11:18.385Z,1013.1
2016-04-02T01:12:18.388Z,1013.1
2016-04-02T01:13:18.406Z,1013.07
2016-04-02T01:14:18.409Z,1013.05
2016-04-02T01:15:18.411Z,1013.04
2016-04-02T01:16:18.431Z,1013.03
2016-04-02T01:17:18.433Z,1012.95
2016-04-02T01:18:18.435Z,1012.94
2016-04-02T01:19:18.438Z,1012.91
2016-04-02T01:20:18.441Z,1012.89
2016-04-02T01:21:18.459Z,1012.9
2016-04-02T01:22:18.462Z,1012.87
2016-04-02T01:23:18.465Z,1012.86
2016-04-02T01:24:18.467Z,1012.85
2016-04-02T01:25:18.469Z,1012.83
2016-04-02T01:26:18.488Z,1012.88
2016-04-02T01:27:18.491Z,1012.84
2016-04-02T01:28:18.494Z,1012.82
2016-04-02T01:29:18.497Z,1012.82
2016-04-02T01:30:18.499Z,1012.83
2016-04-02T01:31:18.517Z,1012.82
2016-04-02T01:32:18.520Z,1012.82
2016-04-02T01:33:18.522Z,1012.81
2016-04-02T01:34:18.525Z,1012.8
2016-04-02T01:35:18.544Z,1012.78
2016-04-02T01:36:18.546Z,1012.76
2016-04-02T01:37:18.549Z,1012.81
2016-04-02T01:38:18.552Z,1012.73
2016-04-02T01:39:18.554Z,1012.77
2016-04-02T01:40:18.573Z,1012.75
2016-04-02T01:41:18.576Z,1012.73
2016-04-02T01:42:18.593Z,1012.74
2016-04-02T01:43:18.581Z,1012.75
2016-04-02T01:44:18.599Z,1012.77
2016-04-02T01:45:18.601Z,1012.74
2016-04-02T01:46:18.620Z,1012.76
2016-04-02T01:47:18.607Z,1012.75
2016-04-02T01:48:18.609Z,1012.74
2016-04-02T01:49:18.628Z,1012.76
2016-04-02T01:50:18.630Z,1012.7
2016-04-02T01:51:18.633Z,1012.69
2016-04-02T01:52:18.636Z,1012.72
2016-04-02T01:53:18.639Z,1012.69
2016-04-02T01:54:18.657Z,1012.67
2016-04-02T01:55:18.660Z,1012.68
2016-04-02T01:56:18.656Z,1012.65
2016-04-02T01:57:18.647Z,1012.64
2016-04-02T01:58:18.653Z,1012.63
2016-04-02T01:59:18.644Z,1012.67
2016-04-02T02:00:18.635Z,1012.67
2016-04-02T02:01:18.631Z,1012.63
2016-04-02T02:02:18.645Z,1012.68
2016-04-02T02:03:18.644Z,1012.68
2016-04-02T02:04:18.642Z,1012.7
2016-04-02T02:05:18.641Z,1012.7
2016-04-02T02:06:18.641Z,1012.72
2016-04-02T02:07:18.657Z,1012.69
2016-04-02T02:08:18.653Z,1012.66
2016-04-02T02:09:18.654Z,1012.73
2016-04-02T02:10:18.655Z,1012.65
2016-04-02T02:11:18.672Z,1012.68
2016-04-02T02:12:18.675Z,1012.67
2016-04-02T02:13:18.677Z,1012.64
2016-04-02T02:14:18.679Z,1012.66
2016-04-02T02:15:18.690Z,1012.63
2016-04-02T02:16:18.693Z,1012.59
2016-04-02T02:17:18.711Z,1012.56
2016-04-02T02:18:18.713Z,1012.56
2016-04-02T02:19:18.715Z,1012.55
2016-04-02T02:20:18.717Z,1012.59
2016-04-02T02:21:18.720Z,1012.59
2016-04-02T02:22:18.722Z,1012.58
2016-04-02T02:23:18.740Z,1012.56
2016-04-02T02:24:18.743Z,1012.58
2016-04-02T02:25:18.745Z,1012.55
2016-04-02T02:26:18.748Z,1012.51
2016-04-02T02:27:18.768Z,1012.56
2016-04-02T02:28:18.770Z,1012.48
2016-04-02T02:29:18.773Z,1012.53
2016-04-02T02:30:18.775Z,1012.52
2016-04-02T02:31:18.794Z,1012.49
2016-04-02T02:32:18.781Z,1012.49
2016-04-02T02:33:18.800Z,1012.48
2016-04-02T02:34:18.803Z,1012.47
2016-04-02T02:35:18.805Z,1012.45
2016-04-02T02:36:18.808Z,1012.45
2016-04-02T02:37:18.826Z,1012.46
2016-04-02T02:38:18.828Z,1012.43
2016-04-02T02:39:18.831Z,1012.41
2016-04-02T02:40:18.833Z,1012.41
2016-04-02T02:41:18.853Z,1012.46
2016-04-02T02:42:18.855Z,1012.42
2016-04-02T02:43:18.858Z,1012.46
2016-04-02T02:44:18.876Z,1012.42
2016-04-02T02:45:18.863Z,1012.43
2016-04-02T02:46:18.881Z,1012.44
2016-04-02T02:47:18.884Z,1012.48
2016-04-02T02:48:18.886Z,1012.44
2016-04-02T02:49:18.889Z,1012.41
2016-04-02T02:50:18.907Z,1012.41
2016-04-02T02:51:18.910Z,1012.45
2016-04-02T02:52:18.913Z,1012.43
2016-04-02T02:53:18.915Z,1012.38
2016-04-02T02:54:18.918Z,1012.41
2016-04-02T02:55:18.921Z,1012.39
2016-04-02T02:56:18.940Z,1012.41
2016-04-02T02:57:18.943Z,1012.39
2016-04-02T02:58:18.945Z,1012.41
2016-04-02T02:59:18.963Z,1012.41
2016-04-02T03:00:18.950Z,1012.42
2016-04-02T03:01:18.968Z,1012.4
2016-04-02T03:02:18.971Z,1012.41
2016-04-02T03:03:18.973Z,1012.38
2016-04-02T03:04:18.977Z,1012.4
2016-04-02T03:05:18.995Z,1012.38
2016-04-02T03:06:18.998Z,1012.39
2016-04-02T03:07:19.001Z,1012.34
2016-04-02T03:08:19.004Z,1012.34
2016-04-02T03:09:19.006Z,1012.32
2016-04-02T03:10:19.025Z,1012.32
2016-04-02T03:11:19.027Z,1012.27
2016-04-02T03:12:19.030Z,1012.27
2016-04-02T03:13:19.033Z,1012.26
2016-04-02T03:14:19.050Z,1012.25
2016-04-02T03:15:19.053Z,1012.25
2016-04-02T03:16:19.055Z,1012.22
2016-04-02T03:17:19.058Z,1012.17
2016-04-02T03:18:19.061Z,1012.17
2016-04-02T03:19:19.064Z,1012.12
2016-04-02T03:20:19.083Z,1012.11
2016-04-02T03:21:19.085Z,1012.13
2016-04-02T03:22:19.088Z,1012.11
2016-04-02T03:23:19.090Z,1012.13
2016-04-02T03:24:19.093Z,1012.12
2016-04-02T03:25:19.111Z,1012.14
2016-04-02T03:26:19.113Z,1012.16
2016-04-02T03:27:19.116Z,1012.1
2016-04-02T03:28:19.119Z,1012.14
2016-04-02T03:29:19.138Z,1012.09
2016-04-02T03:30:19.141Z,1012.14
2016-04-02T03:31:19.143Z,1012.14
2016-04-02T03:32:19.146Z,1012.12
2016-04-02T03:33:19.164Z,1012.14
2016-04-02T03:34:19.167Z,1012.11
2016-04-02T03:35:19.185Z,1012.12
2016-04-02T03:36:19.173Z,1012.11
2016-04-02T03:37:19.175Z,1012.09
2016-04-02T03:38:19.193Z,1012.06
2016-04-02T03:39:19.195Z,1012
2016-04-02T03:40:19.198Z,1012.03
2016-04-02T03:41:19.201Z,1012.01
2016-04-02T03:42:19.204Z,1012.02
2016-04-02T03:43:19.223Z,1012
2016-04-02T03:44:19.225Z,1011.95
2016-04-02T03:45:19.228Z,1012.01
2016-04-02T03:46:19.231Z,1012.04
2016-04-02T03:47:19.233Z,1012.03
2016-04-02T03:48:19.252Z,1012.05
2016-04-02T03:49:19.254Z,1012.01
2016-04-02T03:50:19.257Z,1012.06
2016-04-02T03:51:19.259Z,1012
2016-04-02T03:52:19.277Z,1012.07
2016-04-02T03:53:19.280Z,1012.05
2016-04-02T03:54:19.282Z,1012.09
2016-04-02T03:55:19.285Z,1012.1
2016-04-02T03:56:19.288Z,1012.06
2016-04-02T03:57:19.307Z,1012.06
2016-04-02T03:58:19.310Z,1012.07
2016-04-02T03:59:19.312Z,1012.05
2016-04-02T04:00:19.315Z,1012.04
2016-04-02T04:01:19.317Z,1012.04
2016-04-02T04:02:19.335Z,1012.03
2016-04-02T04:03:19.338Z,1012.01
2016-04-02T04:04:19.341Z,1012.06
2016-04-02T04:05:19.344Z,1012.05
2016-04-02T04:06:19.363Z,1012.09
2016-04-02T04:07:19.365Z,1012.05
2016-04-02T04:08:19.368Z,1012.05
2016-04-02T04:09:19.371Z,1012.04
2016-04-02T04:10:19.373Z,1012.04
2016-04-02T04:11:19.376Z,1012.06
2016-04-02T04:12:19.394Z,1012
2016-04-02T04:13:19.397Z,1012
2016-04-02T04:14:19.400Z,1012.01
2016-04-02T04:15:19.402Z,1012.03
2016-04-02T04:16:19.420Z,1012.01
2016-04-02T04:17:19.422Z,1012
2016-04-02T04:18:19.425Z,1011.99
2016-04-02T04:19:19.428Z,1011.97
2016-04-02T04:20:19.431Z,1011.98
2016-04-02T04:21:19.450Z,1011.95
2016-04-02T04:22:19.452Z,1011.93
2016-04-02T04:23:19.455Z,1011.95
2016-04-02T04:24:19.458Z,1011.91
2016-04-02T04:25:19.476Z,1011.94
2016-04-02T04:26:19.479Z,1011.89
2016-04-02T04:27:19.481Z,1011.9
2016-04-02T04:28:19.484Z,1011.91
2016-04-02T04:29:19.486Z,1011.87
2016-04-02T04:30:19.504Z,1011.88
2016-04-02T04:31:19.507Z,1011.83
2016-04-02T04:32:19.510Z,1011.86
2016-04-02T04:33:19.512Z,1011.86
2016-04-02T04:34:19.516Z,1011.86
2016-04-02T04:35:19.534Z,1011.86
2016-04-02T04:36:19.537Z,1011.84
2016-04-02T04:37:19.540Z,1011.85
2016-04-02T04:38:19.542Z,1011.87
2016-04-02T04:39:19.560Z,1011.86
2016-04-02T04:40:19.562Z,1011.86
2016-04-02T04:41:19.565Z,1011.89
2016-04-02T04:42:19.568Z,1011.88
2016-04-02T04:43:19.571Z,1011.87
2016-04-02T04:44:19.590Z,1011.87
2016-04-02T04:45:19.592Z,1011.88
2016-04-02T04:46:19.595Z,1011.94
2016-04-02T04:47:19.598Z,1011.92
2016-04-02T04:48:19.600Z,1011.95
2016-04-02T04:49:19.619Z,1011.91
2016-04-02T04:50:19.621Z,1011.92
2016-04-02T04:51:19.624Z,1011.92
2016-04-02T04:52:19.627Z,1011.89
2016-04-02T04:53:19.644Z,1011.9
2016-04-02T04:54:19.647Z,1011.79
2016-04-02T04:55:19.650Z,1011.78
2016-04-02T04:56:19.652Z,1011.76
2016-04-02T04:57:19.656Z,1011.75
2016-04-02T04:58:19.658Z,1011.77
2016-04-02T04:59:19.677Z,1011.77
2016-04-02T05:00:19.680Z,1011.76
2016-04-02T05:01:19.682Z,1011.76
2016-04-02T05:02:19.685Z,1011.8
2016-04-02T05:03:19.703Z,1011.78
2016-04-02T05:04:19.706Z,1011.82
2016-04-02T05:05:19.709Z,1011.8
2016-04-02T05:06:19.711Z,1011.84
2016-04-02T05:07:19.714Z,1011.82
2016-04-02T05:08:19.731Z,1011.82
2016-04-02T05:09:19.734Z,1011.9
2016-04-02T05:10:19.737Z,1011.92
2016-04-02T05:11:19.739Z,1011.86
2016-04-02T05:12:19.743Z,1011.88
2016-04-02T05:13:19.761Z,1011.91
2016-04-02T05:14:19.764Z,1011.87
2016-04-02T05:15:19.767Z,1011.83
2016-04-02T05:16:19.769Z,1011.86
2016-04-02T05:17:19.772Z,1011.85
2016-04-02T05:18:19.789Z,1011.84
2016-04-02T05:19:19.792Z,1011.87
2016-04-02T05:20:19.795Z,1011.93
2016-04-02T05:21:19.798Z,1011.94
2016-04-02T05:22:19.801Z,1011.97
2016-04-02T05:23:19.820Z,1011.98
2016-04-02T05:24:19.822Z,1011.96
2016-04-02T05:25:19.825Z,1012
2016-04-02T05:26:19.827Z,1011.96
2016-04-02T05:27:19.830Z,1012.01
2016-04-02T05:28:19.849Z,1011.99
2016-04-02T05:29:19.851Z,1011.99
2016-04-02T05:30:19.854Z,1011.98
2016-04-02T05:31:19.856Z,1012.02
2016-04-02T05:32:19.874Z,1012.02
2016-04-02T05:33:19.877Z,1012.03
2016-04-02T05:34:19.879Z,1011.98
2016-04-02T05:35:19.882Z,1012
2016-04-02T05:36:19.885Z,1012.02
2016-04-02T05:37:19.904Z,1011.98
2016-04-02T05:38:19.907Z,1011.95
2016-04-02T05:39:19.909Z,1012.05
2016-04-02T05:40:19.912Z,1012.02
2016-04-02T05:41:19.914Z,1012.03
2016-04-02T05:42:19.933Z,1012.04
2016-04-02T05:43:19.936Z,1012.01
2016-04-02T05:44:19.938Z,1012
2016-04-02T05:45:19.941Z,1012.02
2016-04-02T05:46:19.958Z,1012.03
2016-04-02T05:47:19.961Z,1012.02
2016-04-02T05:48:19.964Z,1012.03
2016-04-02T05:49:19.967Z,1012.05
2016-04-02T05:50:19.970Z,1012.02
2016-04-02T05:51:19.973Z,1012.05
2016-04-02T05:52:19.991Z,1012.03
2016-04-02T05:53:19.994Z,1012.11
2016-04-02T05:54:19.997Z,1012.07
2016-04-02T05:55:19.999Z,1012.08
2016-04-02T05:56:20.017Z,1012.11
2016-04-02T05:57:20.019Z,1012.15
2016-04-02T05:58:20.022Z,1012.11
2016-04-02T05:59:20.041Z,1012.17
2016-04-02T06:00:20.028Z,1012.14
2016-04-02T06:01:20.047Z,1012.15
2016-04-02T06:02:20.049Z,1012.18
2016-04-02T06:03:20.052Z,1012.21
2016-04-02T06:04:20.055Z,1012.18
2016-04-02T06:05:20.057Z,1012.17
2016-04-02T06:06:20.076Z,1012.15
2016-04-02T06:07:20.078Z,1012.15
2016-04-02T06:08:20.081Z,1012.13
2016-04-02T06:09:20.084Z,1012.16
2016-04-02T06:10:20.101Z,1012.11
2016-04-02T06:11:20.104Z,1012.09
2016-04-02T06:12:20.106Z,1012.07
2016-04-02T06:13:20.109Z,1012.03
2016-04-02T06:14:20.112Z,1012.07
2016-04-02T06:15:20.115Z,1012.03
2016-04-02T06:16:20.134Z,1012.04
2016-04-02T06:17:20.137Z,1012.05
2016-04-02T06:18:20.139Z,1012.05
2016-04-02T06:19:20.142Z,1012.01
2016-04-02T06:20:20.160Z,1011.94
2016-04-02T06:21:20.163Z,1011.96
2016-04-02T06:22:20.166Z,1011.92
2016-04-02T06:23:20.168Z,1011.89
2016-04-02T06:24:20.171Z,1011.9
2016-04-02T06:25:20.188Z,1011.91
2016-04-02T06:26:20.191Z,1011.89
2016-04-02T06:27:20.194Z,1011.92
2016-04-02T06:28:20.196Z,1011.92
2016-04-02T06:29:20.215Z,1011.92
2016-04-02T06:30:20.202Z,1011.9
2016-04-02T06:31:20.220Z,1011.91
2016-04-02T06:32:20.224Z,1011.91
2016-04-02T06:33:20.226Z,1011.93
2016-04-02T06:34:20.229Z,1011.9
2016-04-02T06:35:20.246Z,1011.98
2016-04-02T06:36:20.249Z,1012
2016-04-02T06:37:20.252Z,1011.96
2016-04-02T06:38:20.255Z,1011.97
2016-04-02T06:39:20.258Z,1011.94
2016-04-02T06:40:20.277Z,1011.93
2016-04-02T06:41:20.279Z,1011.87
2016-04-02T06:42:20.282Z,1011.93
2016-04-02T06:43:20.285Z,1011.95
2016-04-02T06:44:20.287Z,1011.94
2016-04-02T06:45:20.306Z,1011.94
2016-04-02T06:46:20.308Z,1011.96
2016-04-02T06:47:20.311Z,1011.96
2016-04-02T06:48:20.314Z,1011.97
2016-04-02T06:49:20.316Z,1011.91
2016-04-02T06:50:20.334Z,1011.92
2016-04-02T06:51:20.336Z,1011.91
2016-04-02T06:52:20.339Z,1011.95
2016-04-02T06:53:20.342Z,1011.9
2016-04-02T06:54:20.361Z,1011.94
2016-04-02T06:55:20.364Z,1011.91
2016-04-02T06:56:20.366Z,1011.91
2016-04-02T06:57:20.369Z,1011.9
2016-04-02T06:58:20.387Z,1011.88
2016-04-02T06:59:20.374Z,1011.86
2016-04-02T07:00:20.393Z,1011.85
2016-04-02T07:01:20.395Z,1011.87
2016-04-02T07:02:20.413Z,1011.85
2016-04-02T07:03:20.400Z,1011.85
2016-04-02T07:04:20.403Z,1011.91
2016-04-02T07:05:20.421Z,1011.91
2016-04-02T07:06:20.424Z,1011.88
2016-04-02T07:07:20.426Z,1011.88
2016-04-02T07:08:20.446Z,1011.91
2016-04-02T07:09:20.448Z,1011.91
2016-04-02T07:10:20.451Z,1011.93
2016-04-02T07:11:20.454Z,1012.01
2016-04-02T07:12:20.456Z,1012.03
2016-04-02T07:13:20.474Z,1012
2016-04-02T07:14:20.477Z,1012.01
2016-04-02T07:15:20.479Z,1012.03
2016-04-02T07:16:20.482Z,1012.05
2016-04-02T07:17:20.501Z,1012.04
2016-04-02T07:18:20.503Z,1012
2016-04-02T07:19:20.506Z,1011.98
2016-04-02T07:20:20.525Z,1011.98
2016-04-02T07:21:20.511Z,1012.01
2016-04-02T07:22:20.530Z,1012.01
2016-04-02T07:23:20.533Z,1012.01
2016-04-02T07:24:20.535Z,1011.97
2016-04-02T07:25:20.553Z,1011.96
2016-04-02T07:26:20.555Z,1011.97
2016-04-02T07:27:20.558Z,1011.91
2016-04-02T07:28:20.561Z,1011.96
2016-04-02T07:29:20.564Z,1011.99
2016-04-02T07:30:20.583Z,1011.91
2016-04-02T07:31:20.585Z,1011.89
2016-04-02T07:32:20.588Z,1011.89
2016-04-02T07:33:20.590Z,1011.89
2016-04-02T07:34:20.593Z,1011.84
2016-04-02T07:35:20.612Z,1011.79
2016-04-02T07:36:20.615Z,1011.75
2016-04-02T07:37:20.617Z,1011.71
2016-04-02T07:38:20.635Z,1011.67
2016-04-02T07:39:20.637Z,1011.69
2016-04-02T07:40:20.640Z,1011.69
2016-04-02T07:41:20.643Z,1011.73
2016-04-02T07:42:20.662Z,1011.73
2016-04-02T07:43:20.665Z,1011.74
2016-04-02T07:44:20.667Z,1011.72
2016-04-02T07:45:20.670Z,1011.71
2016-04-02T07:46:20.672Z,1011.72
2016-04-02T07:47:20.690Z,1011.76
2016-04-02T07:48:20.693Z,1011.75
2016-04-02T07:49:20.695Z,1011.78
2016-04-02T07:50:20.699Z,1011.81
2016-04-02T07:51:20.717Z,1011.82
2016-04-02T07:52:20.720Z,1011.87
2016-04-02T07:53:20.723Z,1011.89
2016-04-02T07:54:20.741Z,1011.92
2016-04-02T07:55:20.744Z,1011.92
2016-04-02T07:56:20.746Z,1011.94
2016-04-02T07:57:20.749Z,1011.94
2016-04-02T07:58:20.751Z,1011.97
2016-04-02T07:59:20.769Z,1012
2016-04-02T08:00:20.772Z,1012
2016-04-02T08:01:20.775Z,1011.95
2016-04-02T08:02:20.778Z,1011.96
2016-04-02T08:03:20.797Z,1012.01
2016-04-02T08:04:20.799Z,1011.95
2016-04-02T08:05:20.802Z,1011.94
2016-04-02T08:06:20.804Z,1011.94
2016-04-02T08:07:20.823Z,1011.97
2016-04-02T08:08:20.825Z,1011.96
2016-04-02T08:09:20.828Z,1011.98
2016-04-02T08:10:20.846Z,1012
2016-04-02T08:11:20.848Z,1011.99
2016-04-02T08:12:20.851Z,1012.04
2016-04-02T08:13:20.854Z,1012.03
2016-04-02T08:14:20.873Z,1011.98
2016-04-02T08:15:20.876Z,1011.95
2016-04-02T08:16:20.878Z,1012.08
2016-04-02T08:17:20.881Z,1012.07
2016-04-02T08:18:20.898Z,1012.11
2016-04-02T08:19:20.901Z,1012.11
2016-04-02T08:20:20.904Z,1012.22
2016-04-02T08:21:20.923Z,1012.19
2016-04-02T08:22:20.926Z,1012.17
2016-04-02T08:23:20.928Z,1012.16
2016-04-02T08:24:20.947Z,1012.17
2016-04-02T08:25:20.949Z,1012.14
2016-04-02T08:26:20.952Z,1012.13
2016-04-02T08:27:20.954Z,1012.13
2016-04-02T08:28:20.972Z,1012.13
2016-04-02T08:29:20.975Z,1012.17
2016-04-02T08:30:20.978Z,1012.58
2016-04-02T08:31:20.997Z,1012.98
2016-04-02T08:32:20.999Z,1013
2016-04-02T08:33:21.002Z,1013.04
2016-04-02T08:34:21.020Z,1013.1
2016-04-02T08:35:21.038Z,1013.22
2016-04-02T08:36:21.040Z,1013.25
2016-04-02T08:37:21.043Z,1013.29
2016-04-02T08:38:21.062Z,1013.32
2016-04-02T08:39:21.065Z,1013.28
2016-04-02T08:40:21.082Z,1013.27
2016-04-02T08:41:21.086Z,1013.22
2016-04-02T08:42:21.120Z,1013.22
2016-04-02T08:43:21.123Z,1013.22
2016-04-02T08:44:21.125Z,1013.26
2016-04-02T08:45:21.143Z,1013.28
2016-04-02T08:46:21.162Z,1013.26
2016-04-02T08:47:21.165Z,1013.2
2016-04-02T08:48:21.198Z,1013.18
2016-04-02T08:49:21.186Z,1013.08
2016-04-02T08:50:21.203Z,1012.99
2016-04-02T08:51:21.206Z,1012.6
2016-04-02T08:52:21.225Z,1012.21
2016-04-02T08:53:21.227Z,1012.09
2016-04-02T08:54:21.245Z,1012.07
2016-04-02T08:55:21.248Z,1012.05
2016-04-02T08:56:21.267Z,1012.03
2016-04-02T08:57:21.270Z,1011.97
2016-04-02T08:58:21.272Z,1011.96
2016-04-02T08:59:21.291Z,1011.92
2016-04-02T09:00:21.293Z,1011.92
2016-04-02T09:01:21.311Z,1011.89
2016-04-02T09:02:21.313Z,1011.93
2016-04-02T09:03:21.333Z,1011.93
2016-04-02T09:04:21.335Z,1011.93
2016-04-02T09:05:21.338Z,1011.9
2016-04-02T09:06:21.356Z,1011.92
2016-04-02T09:07:21.359Z,1011.88
2016-04-02T09:08:21.361Z,1011.86
2016-04-02T09:09:21.379Z,1011.85
2016-04-02T09:10:21.382Z,1011.83
2016-04-02T09:11:21.401Z,1011.82
2016-04-02T09:12:21.404Z,1011.8
2016-04-02T09:13:21.406Z,1011.8
2016-04-02T09:14:21.424Z,1011.8
2016-04-02T09:15:21.427Z,1011.8
2016-04-02T09:16:21.430Z,1011.81
2016-04-02T09:17:21.449Z,1011.82
2016-04-02T09:18:21.451Z,1011.81
2016-04-02T09:19:21.470Z,1011.77
2016-04-02T09:20:21.487Z,1011.77
2016-04-02T09:21:21.475Z,1011.74
2016-04-02T09:22:21.492Z,1011.74
2016-04-02T09:23:21.495Z,1011.79
2016-04-02T09:24:21.498Z,1011.76
2016-04-02T09:25:21.517Z,1011.77
2016-04-02T09:26:21.520Z,1011.75
2016-04-02T09:27:21.522Z,1011.78
2016-04-02T09:28:21.541Z,1011.79
2016-04-02T09:29:21.543Z,1011.78
2016-04-02T09:30:21.546Z,1011.82
2016-04-02T09:31:21.563Z,1011.7
2016-04-02T09:32:21.566Z,1011.7
2016-04-02T09:33:21.569Z,1011.71
2016-04-02T09:34:21.588Z,1011.7
2016-04-02T09:35:21.591Z,1011.74
2016-04-02T09:36:21.593Z,1011.75
2016-04-02T09:37:21.611Z,1011.78
2016-04-02T09:38:21.613Z,1011.74
2016-04-02T09:39:21.617Z,1011.73
2016-04-02T09:40:21.635Z,1011.7
2016-04-02T09:41:21.638Z,1011.76
2016-04-02T09:42:21.640Z,1011.74
2016-04-02T09:43:21.659Z,1011.7
2016-04-02T09:44:21.662Z,1011.7
2016-04-02T09:45:21.664Z,1011.69
2016-04-02T09:46:21.698Z,1011.72
2016-04-02T09:47:21.684Z,1011.71
2016-04-02T09:48:21.704Z,1011.69
2016-04-02T09:49:21.706Z,1011.7
2016-04-02T09:50:21.709Z,1011.71
2016-04-02T09:51:21.727Z,1011.78
2016-04-02T09:52:21.730Z,1011.8
2016-04-02T09:53:21.733Z,1011.78
2016-04-02T09:54:21.735Z,1011.82
2016-04-02T09:55:21.753Z,1011.84
2016-04-02T09:56:21.756Z,1011.85
2016-04-02T09:57:21.759Z,1011.87
2016-04-02T09:58:21.778Z,1011.91
2016-04-02T09:59:21.780Z,1011.88
2016-04-02T10:00:21.798Z,1011.81
2016-04-02T10:01:21.800Z,1011.88
2016-04-02T10:02:21.803Z,1011.92
2016-04-02T10:03:21.822Z,1011.86
2016-04-02T10:04:21.825Z,1011.88
2016-04-02T10:05:21.828Z,1011.86
2016-04-02T10:06:21.830Z,1011.84
2016-04-02T10:07:21.849Z,1011.9
2016-04-02T10:08:21.851Z,1011.89
2016-04-02T10:09:21.854Z,1011.96
2016-04-02T10:10:21.871Z,1011.92
2016-04-02T10:11:21.874Z,1011.85
2016-04-02T10:12:21.877Z,1011.8
2016-04-02T10:13:21.896Z,1011.74
2016-04-02T10:14:21.899Z,1011.74
2016-04-02T10:15:21.901Z,1011.76
2016-04-02T10:16:21.920Z,1011.76
2016-04-02T10:17:21.922Z,1011.77
2016-04-02T10:18:21.940Z,1011.73
2016-04-02T10:19:21.942Z,1011.72
2016-04-02T10:20:21.945Z,1011.71
2016-04-02T10:21:21.948Z,1011.58
2016-04-02T10:22:21.967Z,1011.58
2016-04-02T10:23:21.970Z,1011.53
2016-04-02T10:24:21.972Z,1011.53
2016-04-02T10:25:21.990Z,1011.53
2016-04-02T10:26:21.992Z,1011.54
2016-04-02T10:27:21.995Z,1011.51
2016-04-02T10:28:22.014Z,1011.46
2016-04-02T10:29:22.017Z,1011.39
2016-04-02T10:30:22.020Z,1011.43
2016-04-02T10:31:22.022Z,1011.4
2016-04-02T10:32:22.041Z,1011.42
2016-04-02T10:33:22.043Z,1011.44
2016-04-02T10:34:22.046Z,1011.43
2016-04-02T10:35:22.063Z,1011.39
2016-04-02T10:36:22.066Z,1011.41
2016-04-02T10:37:22.085Z,1011.34
2016-04-02T10:38:22.088Z,1011.27
2016-04-02T10:39:22.091Z,1011.3
2016-04-02T10:40:22.093Z,1011.28
2016-04-02T10:41:22.112Z,1011.27
2016-04-02T10:42:22.115Z,1011.26
2016-04-02T10:43:22.117Z,1011.22
2016-04-02T10:44:22.120Z,1011.23
2016-04-02T10:45:22.137Z,1011.18
2016-04-02T10:46:22.140Z,1011.12
2016-04-02T10:47:22.143Z,1011.1
2016-04-02T10:48:22.162Z,1011.04
2016-04-02T10:49:22.165Z,1010.98
2016-04-02T10:50:22.167Z,1010.99
2016-04-02T10:51:22.185Z,1010.97
2016-04-02T10:52:22.187Z,1010.94
2016-04-02T10:53:22.191Z,1010.96
2016-04-02T10:54:22.209Z,1010.92
2016-04-02T10:55:22.212Z,1010.88
2016-04-02T10:56:22.215Z,1010.79
2016-04-02T10:57:22.233Z,1010.73
2016-04-02T10:58:22.236Z,1010.65
2016-04-02T10:59:22.238Z,1010.58
2016-04-02T11:00:22.256Z,1010.64
2016-04-02T11:01:22.258Z,1010.66
2016-04-02T11:02:22.251Z,1010.58
2016-04-02T11:03:22.258Z,1010.58
2016-04-02T11:04:22.258Z,1010.59
2016-04-02T11:05:22.297Z,1010.51
2016-04-02T11:06:22.242Z,1010.48
2016-04-02T11:07:22.249Z,1010.53
2016-04-02T11:08:22.247Z,1010.52
2016-04-02T11:09:22.246Z,1010.57
2016-04-02T11:10:22.259Z,1010.53
2016-04-02T11:11:22.257Z,1010.5
2016-04-02T11:12:22.256Z,1010.46
2016-04-02T11:13:22.273Z,1010.49
2016-04-02T11:14:22.274Z,1010.53
2016-04-02T11:15:22.275Z,1010.55
2016-04-02T11:16:22.276Z,1010.53
2016-04-02T11:17:22.292Z,1010.52
2016-04-02T11:18:22.295Z,1010.6
2016-04-02T11:19:22.298Z,1010.64
2016-04-02T11:20:22.316Z,1010.68
2016-04-02T11:21:22.318Z,1010.68
2016-04-02T11:22:22.429Z,1010.68
2016-04-02T11:23:22.323Z,1010.62
2016-04-02T11:24:22.342Z,1010.59
2016-04-02T11:25:22.345Z,1010.62
2016-04-02T11:26:22.348Z,1010.57
2016-04-02T11:27:22.365Z,1010.6
2016-04-02T11:28:22.368Z,1010.51
2016-04-02T11:29:22.370Z,1010.43
2016-04-02T11:30:22.389Z,1010.41
2016-04-02T11:31:22.392Z,1010.38
2016-04-02T11:32:22.394Z,1010.43
2016-04-02T11:33:22.413Z,1010.51
2016-04-02T11:34:22.416Z,1010.47
2016-04-02T11:35:22.419Z,1010.46
2016-04-02T11:36:22.422Z,1010.37
2016-04-02T11:37:22.439Z,1010.34
2016-04-02T11:38:22.442Z,1010.37
2016-04-02T11:39:22.444Z,1010.35
2016-04-02T11:40:22.463Z,1010.31
2016-04-02T11:41:22.465Z,1010.4
2016-04-02T11:42:22.468Z,1010.39
2016-04-02T11:43:22.471Z,1010.38
2016-04-02T11:44:22.488Z,1010.37
2016-04-02T11:45:22.492Z,1010.36
2016-04-02T11:46:22.494Z,1010.29
2016-04-02T11:47:22.497Z,1010.32
2016-04-02T11:48:22.515Z,1010.23
2016-04-02T11:49:22.518Z,1010.24
2016-04-02T11:50:22.521Z,1010.27
2016-04-02T11:51:22.540Z,1010.22
2016-04-02T11:52:22.543Z,1010.25
2016-04-02T11:53:22.545Z,1010.26
2016-04-02T11:54:22.563Z,1010.21
2016-04-02T11:55:22.565Z,1010.23
2016-04-02T11:56:22.568Z,1010.19
2016-04-02T11:57:22.586Z,1010.18
2016-04-02T11:58:22.573Z,1010.18
2016-04-02T11:59:22.592Z,1010.16
2016-04-02T12:00:22.594Z,1010.13
2016-04-02T12:01:22.614Z,1010.11
2016-04-02T12:02:22.616Z,1010.09
2016-04-02T12:03:22.619Z,1010.12
2016-04-02T12:04:22.621Z,1010.15
2016-04-02T12:05:22.639Z,1010.17
2016-04-02T12:06:22.642Z,1010.1
2016-04-02T12:07:22.644Z,1010.07
2016-04-02T12:08:22.663Z,1010.05